Latest Weather Observations for Charlton

IDV60801

Issued at 2:02 pm EST Saturday 23 May 2015 (issued every 30 minutes, with the page automatically refreshed every 10 minutes)

About weather observations | Map of weather stations | Latest weather observations for VIC | Other Formats
Station Details ID: 080128 Name: CHARLTON Lat: -36.28 Lon: 143.33 Height: 131.7 m
Data from the previous 72 hours. | See also: Recent months at Charlton
Date/Time
EST
Temp
°C
App
Temp
°C
Dew
Point
Rel
Hum
%
Delta-T
°C
Wind Press
QNH
hPa
Press
MSL
hPa
Rain
since 9 am
mm
Dir
 
Spd
km/h
Gust
km/h
Spd
kts
Gust
kts
23/02:00pm 14.3 12.3 4.3 51 4.6 NNE 4 7 2 4 1030.1 1030.2 0.0
23/01:30pm 14.2 11.9 5.0 54 4.3 ENE 6 9 3 5 1030.4 1030.5 0.0
23/01:00pm 13.4 11.0 4.3 54 4.2 SE 6 7 3 4 1030.9 1031.0 0.0
23/12:30pm 13.6 11.7 4.7 55 4.1 NE 4 7 2 4 1031.1 1031.2 0.0
23/12:00pm 12.6 9.8 5.1 60 3.5 ESE 9 11 5 6 1031.3 1031.4 0.0
23/11:30am 11.8 9.1 5.7 66 2.9 S 9 13 5 7 1032.0 1032.1 0.0
23/11:00am 10.9 7.4 5.4 69 2.5 SE 13 17 7 9 1032.3 1032.4 0.0
23/10:30am 10.0 7.3 5.4 73 2.1 SSE 9 13 5 7 1032.4 1032.5 0.0
23/10:00am 8.9 5.8 5.6 80 1.5 SSE 11 15 6 8 1032.6 1032.7 0.0
23/09:30am 7.5 4.9 6.3 92 0.5 SSE 9 17 5 9 1032.6 1032.7 0.0
23/09:00am 4.9 3.4 4.8 99 0.0 S 2 7 1 4 1032.5 1032.6 0.0
23/08:30am 3.7 2.3 3.6 99 0.0 CALM 0 0 0 0 1032.3 1032.4 0.0
23/08:00am 1.6 -0.2 1.5 99 0.0 CALM 0 0 0 0 1032.0 1032.1 0.0
23/07:30am 0.6 -1.3 0.5 99 0.0 CALM 0 0 0 0 1031.7 1031.8 0.0
23/07:00am 0.9 -1.4 0.6 98 0.1 SSW 2 6 1 3 1031.3 1031.4 0.0
23/06:30am 2.5 0.1 2.4 99 0.0 SSW 4 7 2 4 1031.1 1031.2 0.0
23/06:00am 2.5 -0.2 2.4 99 0.0 W 6 7 3 4 1031.0 1031.1 0.0
23/05:30am 2.3 0.6 2.0 98 0.1 CALM 0 6 0 3 1030.8 1030.9 0.0
23/05:00am 3.1 0.3 3.0 99 0.0 SW 7 9 4 5 1030.6 1030.7 0.0
23/04:30am 2.3 0.6 1.9 97 0.2 CALM 0 0 0 0 1030.6 1030.7 0.0
23/04:00am 2.7 0.3 2.1 96 0.2 S 4 9 2 5 1030.5 1030.6 0.0
23/03:30am 3.0 0.2 2.3 95 0.3 SSW 6 9 3 5 1030.5 1030.6 0.0
23/03:00am 3.9 1.4 3.6 98 0.1 SW 6 9 3 5 1030.6 1030.7 0.0
23/02:30am 2.8 0.4 2.4 97 0.2 SW 4 7 2 4 1030.8 1030.9 0.0
23/02:00am 3.1 0.7 2.4 95 0.3 WSW 4 6 2 3 1030.9 1031.0 0.0
23/01:30am 3.8 2.3 2.9 94 0.4 CALM 0 4 0 2 1030.9 1031.0 0.0
23/01:00am 4.7 2.0 3.8 94 0.4 SSW 7 9 4 5 1030.9 1031.0 0.0
23/12:30am 4.8 3.4 3.6 92 0.5 CALM 0 6 0 3 1031.0 1031.1 0.0
23/12:00am 5.2 2.5 3.9 91 0.5 S 7 9 4 5 1031.1 1031.2 0.0
 
Date/Time
EST
Temp
°C
App
Temp
°C
Dew
Point
Rel
Hum
%
Delta-T
°C
Wind Press
QNH
hPa
Press
MSL
hPa
Rain
since 9 am
mm
Dir
 
Spd
km/h
Gust
km/h
Spd
kts
Gust
kts
22/11:30pm 5.2 2.5 3.7 90 0.6 S 7 11 4 6 1031.0 1031.1 0.0
22/11:00pm 5.5 2.8 3.8 89 0.7 S 7 9 4 5 1031.1 1031.2 0.0
22/10:30pm 6.2 3.6 4.4 88 0.8 S 7 11 4 6 1031.2 1031.3 0.0
22/10:00pm 6.4 3.8 4.2 86 0.9 S 7 9 4 5 1031.2 1031.3 0.0
22/09:30pm 7.1 4.2 4.6 84 1.1 SSE 9 13 5 7 1031.0 1031.1 0.0
22/09:00pm 7.0 4.5 4.5 84 1.1 S 7 9 4 5 1031.0 1031.1 0.0
22/08:30pm 7.4 4.5 4.5 82 1.3 S 9 11 5 6 1031.0 1031.1 0.0
22/08:00pm 8.7 5.4 4.7 76 1.8 SSE 11 17 6 9 1030.8 1030.9 0.0
22/07:30pm 9.3 6.5 5.1 75 1.9 S 9 15 5 8 1030.6 1030.7 0.0
22/07:00pm 10.1 6.2 5.3 72 2.2 S 15 20 8 11 1030.0 1030.1 0.0
22/06:30pm 10.2 7.2 5.8 74 2.0 S 11 19 6 10 1030.0 1030.1 0.0
22/06:00pm 10.8 7.5 6.2 73 2.1 S 13 19 7 10 1029.6 1029.7 0.0
22/05:30pm 12.1 8.7 5.9 66 2.9 S 13 20 7 11 1029.2 1029.3 0.0
22/05:00pm 13.2 9.5 6.3 63 3.3 S 15 22 8 12 1028.9 1029.0 0.0
22/04:30pm 14.2 10.3 7.0 62 3.5 S 17 24 9 13 1028.8 1028.9 0.0
22/04:00pm 15.1 11.3 7.4 60 3.8 S 17 28 9 15 1028.5 1028.6 0.0
22/03:30pm 15.6 12.1 7.4 58 4.1 S 15 26 8 14 1028.2 1028.2 0.0
22/03:00pm 16.1 12.4 7.8 58 4.2 S 17 28 9 15 1028.0 1028.0 0.0
22/02:30pm 16.3 12.2 8.0 58 4.2 S 19 28 10 15 1027.7 1027.7 0.0
22/02:00pm 16.0 11.1 7.0 55 4.4 SSE 22 32 12 17 1027.7 1027.7 0.0
22/01:30pm 16.0 11.7 8.0 59 4.1 S 20 32 11 17 1027.7 1027.7 0.0
22/01:00pm 15.7 10.9 7.2 57 4.2 S 22 33 12 18 1027.9 1027.9 0.0
22/12:30pm 16.3 12.2 8.8 61 3.9 SSE 20 32 11 17 1028.1 1028.1 0.0
22/12:00pm 15.4 10.0 8.2 62 3.6 SSE 26 33 14 18 1028.3 1028.3 0.0
22/11:30am 15.2 10.5 7.7 61 3.8 SSE 22 33 12 18 1028.6 1028.7 0.0
22/11:00am 15.0 10.2 8.7 66 3.2 SSE 24 35 13 19 1028.6 1028.7 0.0
22/10:30am 14.2 9.7 8.6 69 2.8 SSE 22 33 12 18 1028.5 1028.6 0.0
22/10:00am 13.3 8.8 8.4 72 2.4 SSE 22 33 12 18 1028.3 1028.3 0.0
22/09:30am 12.5 8.5 8.4 76 2.0 SSE 19 28 10 15 1028.2 1028.2 0.0
22/09:00am 11.6 7.6 8.1 79 1.7 SSE 19 26 10 14 1028.2 1028.2 0.2
22/08:30am 10.8 7.5 8.0 83 1.4 S 15 26 8 14 1027.9 1027.9 0.2
22/08:00am 9.3 6.7 7.7 90 0.8 S 11 17 6 9 1027.7 1027.7 0.2
22/07:30am 8.3 5.6 7.4 94 0.4 S 11 15 6 8 1027.3 1027.3 0.2
22/07:00am 8.6 6.3 7.5 93 0.5 SSW 9 11 5 6 1026.8 1026.8 0.2
22/06:30am 8.8 6.2 7.7 93 0.5 S 11 17 6 9 1026.5 1026.5 0.0
22/06:00am 8.9 5.9 7.7 92 0.6 S 13 19 7 10 1025.9 1026.0 0.0
22/05:30am 9.2 6.6 7.6 90 0.8 S 11 17 6 9 1025.7 1025.8 0.0
22/05:00am 9.5 6.2 7.9 90 0.8 S 15 20 8 11 1025.3 1025.4 0.0
22/04:30am 9.6 5.6 8.4 92 0.6 S 19 24 10 13 1025.2 1025.3 0.0
22/04:00am 9.7 6.8 8.3 91 0.7 S 13 20 7 11 1025.3 1025.4 0.0
22/03:30am 9.8 7.1 8.9 94 0.4 S 13 19 7 10 1025.4 1025.5 0.0
22/03:00am 8.8 6.7 8.4 97 0.2 S 9 15 5 8 1025.4 1025.5 0.0
22/02:30am 9.1 6.7 8.5 96 0.3 S 11 19 6 10 1025.3 1025.4 0.0
22/02:00am 8.6 6.4 7.8 95 0.4 S 9 15 5 8 1025.2 1025.3 0.0
22/01:30am 8.4 6.6 7.0 91 0.7 SW 6 9 3 5 1024.9 1025.0 0.0
22/01:00am 9.1 6.8 7.4 89 0.8 SW 9 15 5 8 1025.0 1025.1 0.0
22/12:30am 9.6 7.4 7.7 88 0.9 SW 9 19 5 10 1024.9 1025.0 0.0
22/12:00am 9.1 7.5 8.0 93 0.5 SW 6 9 3 5 1024.9 1025.0 0.0
 
Date/Time
EST
Temp
°C
App
Temp
°C
Dew
Point
Rel
Hum
%
Delta-T
°C
Wind Press
QNH
hPa
Press
MSL
hPa
Rain
since 9 am
mm
Dir
 
Spd
km/h
Gust
km/h
Spd
kts
Gust
kts
21/11:30pm 8.4 6.5 7.5 94 0.4 SW 7 11 4 6 1024.9 1025.0 0.0
21/11:00pm 8.4 6.4 7.2 92 0.6 WSW 7 9 4 5 1025.0 1025.1 0.0
21/10:30pm 8.8 6.8 7.1 89 0.8 WSW 7 11 4 6 1024.9 1025.0 0.0
21/10:00pm 9.5 7.1 7.1 85 1.1 SW 9 13 5 7 1025.0 1025.1 0.0
21/09:30pm 9.6 7.6 6.9 83 1.3 SSW 7 9 4 5 1025.1 1025.2 0.0
21/09:00pm 9.8 8.0 7.2 84 1.2 S 6 9 3 5 1025.0 1025.1 0.0
21/08:30pm 10.6 8.7 7.7 82 1.4 S 7 11 4 6 1024.8 1024.9 0.0
21/08:00pm 10.9 8.5 7.2 78 1.8 S 9 17 5 9 1024.7 1024.8 0.0
21/07:30pm 11.3 9.0 7.6 78 1.8 S 9 15 5 8 1024.6 1024.7 0.0
21/07:00pm 11.8 9.5 7.3 74 2.2 S 9 15 5 8 1024.5 1024.6 0.0
21/06:30pm 12.0 9.7 7.5 74 2.2 S 9 13 5 7 1024.3 1024.4 0.0
21/06:00pm 12.2 9.4 7.1 71 2.5 S 11 15 6 8 1024.0 1024.1 0.0
21/05:30pm 12.4 10.1 7.3 71 2.5 S 9 17 5 9 1023.7 1023.8 0.0
21/05:00pm 12.9 10.3 7.6 70 2.6 S 11 19 6 10 1023.5 1023.6 0.0
21/04:30pm 12.8 10.5 7.3 69 2.7 S 9 15 5 8 1023.2 1023.3 0.0
21/04:00pm 13.6 10.5 7.2 65 3.1 S 13 17 7 9 1022.9 1023.0 0.0
21/03:30pm 13.3 10.0 6.4 63 3.3 S 13 20 7 11 1022.8 1022.9 0.0
21/03:00pm 14.0 10.9 7.3 64 3.3 S 13 26 7 14 1022.6 1022.7 0.0
21/02:30pm 13.4 9.4 6.7 64 3.2 S 17 26 9 14 1022.5 1022.6 0.0
21/02:00pm 14.4 11.0 7.7 64 3.3 S 15 22 8 12 1022.5 1022.6 0.0
21/01:30pm 15.1 11.4 8.1 63 3.5 S 17 32 9 17 1022.7 1022.8 0.0
21/01:00pm 13.2 9.4 7.4 68 2.8 SSE 17 26 9 14 1023.1 1023.2 0.0
21/12:30pm 13.3 8.5 7.5 68 2.9 SSE 22 32 12 17 1023.4 1023.5 0.0
21/12:00pm 13.3 9.4 7.3 67 2.9 S 17 28 9 15 1023.7 1023.8 0.0
21/11:30am 12.7 9.3 7.8 72 2.4 S 15 24 8 13 1023.9 1024.0 0.0
21/11:00am 11.8 7.5 6.9 72 2.3 S 19 26 10 14 1024.1 1024.2 0.0
21/10:30am 11.1 7.1 6.8 75 2.1 S 17 28 9 15 1024.0 1024.1 0.0
21/10:00am 10.6 7.0 6.7 77 1.8 S 15 22 8 12 1024.0 1024.1 0.0
21/09:30am 10.3 7.7 7.7 84 1.3 S 11 15 6 8 1023.7 1023.8 0.0
21/09:00am 9.7 6.9 7.1 84 1.2 SSW 11 17 6 9 1023.4 1023.5 2.4
21/08:30am 9.1 6.2 6.7 85 1.1 SSW 11 15 6 8 1023.1 1023.2 2.4
21/08:00am 8.7 5.8 6.5 86 1.0 SSW 11 17 6 9 1022.8 1022.9 2.4
21/07:30am 8.7 5.7 6.2 84 1.2 SSW 11 20 6 11 1022.5 1022.6 2.4
21/07:00am 8.6 5.6 6.2 85 1.1 SSW 11 17 6 9 1022.1 1022.2 2.4
21/06:30am 8.6 5.3 6.6 87 0.9 S 13 20 7 11 1021.8 1021.8 2.4
21/06:00am 8.5 6.1 7.0 90 0.7 SSW 9 15 5 8 1021.6 1021.6 2.4
21/05:30am 8.5 6.1 7.0 90 0.7 S 9 15 5 8 1021.4 1021.4 2.4
21/05:00am 8.2 5.8 6.8 91 0.7 SSW 9 11 5 6 1021.1 1021.1 2.4
21/04:30am 8.4 5.6 6.9 90 0.7 SSW 11 15 6 8 1020.9 1020.9 2.4
21/04:00am 8.7 6.4 7.3 91 0.7 SW 9 15 5 8 1020.9 1020.9 2.4
21/03:30am 8.6 6.7 7.4 92 0.6 SSW 7 13 4 7 1020.9 1020.9 2.4
21/03:00am 8.7 6.8 7.5 92 0.6 SSW 7 11 4 6 1020.9 1020.9 2.4
21/02:30am 8.9 6.6 7.5 91 0.7 SSW 9 15 5 8 1020.8 1020.8 2.4
21/02:00am 8.7 6.5 7.8 94 0.4 SSW 9 15 5 8 1020.6 1020.6 2.4
21/01:30am 8.5 6.2 7.6 94 0.4 SSW 9 13 5 7 1020.4 1020.4 2.4
21/01:00am 8.7 6.4 7.5 92 0.6 SSW 9 15 5 8 1020.2 1020.2 2.4
21/12:30am 8.7 5.7 7.5 92 0.6 SSW 13 19 7 10 1020.1 1020.1 2.4
21/12:00am 8.6 5.5 7.4 92 0.6 SSW 13 20 7 11 1020.1 1020.1 2.4
 
Date/Time
EST
Temp
°C
App
Temp
°C
Dew
Point
Rel
Hum
%
Delta-T
°C
Wind Press
QNH
hPa
Press
MSL
hPa
Rain
since 9 am
mm
Dir
 
Spd
km/h
Gust
km/h
Spd
kts
Gust
kts
20/11:30pm 9.0 6.0 7.5 90 0.7 SSW 13 19 7 10 1019.9 1019.9 2.4
20/11:00pm 9.1 6.0 7.4 89 0.8 SSW 13 20 7 11 1019.9 1019.9 2.4
20/10:30pm 9.2 6.1 7.3 88 0.9 SSW 13 17 7 9 1019.9 1019.9 2.4
20/10:00pm 9.4 6.4 7.5 88 0.9 SSW 13 24 7 13 1019.7 1019.7 2.4
20/09:30pm 9.6 6.2 7.5 87 1.0 SSW 15 22 8 12 1019.6 1019.6 2.4
20/09:00pm 9.3 6.7 7.7 90 0.8 SW 11 17 6 9 1019.4 1019.4 2.4
20/08:30pm 9.7 7.2 8.0 89 0.8 SW 11 17 6 9 1019.2 1019.2 2.4
20/08:00pm 10.1 6.4 8.0 87 1.0 SSW 17 24 9 13 1018.9 1018.9 2.4
20/07:30pm 10.6 7.4 8.4 86 1.1 SSW 15 22 8 12 1018.6 1018.6 2.4
20/07:00pm 11.0 8.7 8.9 87 1.0 SSW 11 19 6 10 1018.1 1018.2 2.4
20/06:30pm 11.7 9.1 9.3 85 1.2 SW 13 22 7 12 1017.4 1017.5 2.4
20/06:00pm 12.2 9.2 9.2 82 1.5 SSW 15 24 8 13 1016.6 1016.7 2.4
20/05:30pm 12.5 11.1 10.9 90 0.8 SSW 9 15 5 8 1016.0 1016.1 2.4
20/05:00pm 12.6 12.0 12.4 99 0.1 S 7 13 4 7 1015.7 1015.8 2.4
20/04:30pm 12.6 11.6 12.4 99 0.1 SSW 9 11 5 6 1015.3 1015.3 2.2
20/04:00pm 12.5 11.4 11.9 96 0.3 S 9 13 5 7 1014.9 1014.9 2.2
20/03:30pm 13.9 11.8 12.3 90 0.9 W 15 24 8 13 1014.3 1014.3 0.6
20/03:00pm 15.3 13.3 11.5 78 2.1 WNW 13 24 7 13 1014.0 1014.0 0.0
20/02:30pm 15.2 12.5 11.6 79 2.0 WNW 17 26 9 14 1013.7 1013.7 0.0

Other Formats:

Comma delimited format used in spreadsheet applications
http://www.bom.gov.au/fwo/IDV60801/IDV60801.94839.axf

JavaScript Object Notation format (JSON) in row-major order
http://www.bom.gov.au/fwo/IDV60801/IDV60801.94839.json